createdAt,value
2023-05-01T00:00:05.653Z,2.47
2023-05-01T00:01:08.933Z,1.80
2023-05-01T00:02:12.753Z,1.58
2023-05-01T00:03:18.913Z,2.40
2023-05-01T00:04:23.654Z,1.58
2023-05-01T00:05:27.768Z,1.90
2023-05-01T00:06:33.979Z,2.00
2023-05-01T00:07:37.988Z,2.75
2023-05-01T00:08:41.724Z,2.40
2023-05-01T00:09:45.857Z,1.95
2023-05-01T00:10:49.257Z,1.83
2023-05-01T00:11:52.539Z,1.90
2023-05-01T00:12:55.730Z,2.33
2023-05-01T00:13:59.332Z,1.63
2023-05-01T00:15:02.781Z,1.60
2023-05-01T00:16:12.519Z,2.10
2023-05-01T00:17:16.260Z,2.05
2023-05-01T00:18:19.775Z,1.67
2023-05-01T00:19:23.178Z,1.38
2023-05-01T00:20:30.694Z,1.50
2023-05-01T00:21:34.708Z,1.58
2023-05-01T00:22:38.676Z,1.40
2023-05-01T00:23:42.047Z,1.55
2023-05-01T00:24:45.989Z,1.70
2023-05-01T00:25:50.089Z,1.73
2023-05-01T00:26:53.564Z,1.67
2023-05-01T00:27:56.985Z,1.40
2023-05-01T00:29:00.068Z,2.22
2023-05-01T00:30:04.398Z,1.58
2023-05-01T00:31:07.852Z,1.80
2023-05-01T00:32:12.079Z,1.63
2023-05-01T00:33:16.419Z,2.28
2023-05-01T00:34:20.414Z,1.65
2023-05-01T00:35:24.360Z,2.00
2023-05-01T00:36:28.124Z,2.03
2023-05-01T00:37:31.703Z,2.13
2023-05-01T00:38:34.854Z,1.60
2023-05-01T00:39:38.081Z,1.40
2023-05-01T00:40:47.859Z,2.15
2023-05-01T00:41:51.867Z,1.40
2023-05-01T00:42:56.356Z,1.60
2023-05-01T00:44:00.573Z,1.38
2023-05-01T00:45:05.026Z,1.58
2023-05-01T00:46:09.202Z,1.70
2023-05-01T00:47:13.332Z,1.15
2023-05-01T00:48:17.320Z,1.75
2023-05-01T00:49:21.006Z,1.33
2023-05-01T00:50:24.907Z,1.38
2023-05-01T00:51:28.816Z,1.38
2023-05-01T00:52:31.829Z,1.58
2023-05-01T00:53:35.560Z,0.98
2023-05-01T00:54:39.131Z,1.48
2023-05-01T00:55:43.021Z,1.58
2023-05-01T00:56:48.608Z,1.50
2023-05-01T00:57:52.241Z,1.60
2023-05-01T00:58:56.116Z,1.65
2023-05-01T01:00:00.072Z,1.90
2023-05-01T01:01:04.147Z,1.75
2023-05-01T01:02:08.306Z,1.90
2023-05-01T01:03:12.688Z,1.67
2023-05-01T01:04:16.765Z,1.70
2023-05-01T01:05:20.684Z,1.80
2023-05-01T01:06:44.777Z,1.95
2023-05-01T01:08:27.787Z,1.50
2023-05-01T01:09:46.393Z,1.98
2023-05-01T01:11:16.562Z,1.95
2023-05-01T01:12:33.238Z,2.03
2023-05-01T01:13:45.428Z,1.60
2023-05-01T01:14:56.533Z,1.90
2023-05-01T01:16:22.522Z,1.80
2023-05-01T01:17:48.044Z,1.20
2023-05-01T01:18:59.527Z,1.42
2023-05-01T01:20:30.188Z,1.50
2023-05-01T01:21:41.598Z,2.35
2023-05-01T01:22:47.791Z,1.30
2023-05-01T01:24:10.322Z,1.48
2023-05-01T01:25:31.158Z,1.85
2023-05-01T01:26:35.009Z,1.50
2023-05-01T01:28:07.335Z,1.92
2023-05-01T01:29:40.666Z,1.17
2023-05-01T01:31:05.250Z,1.95
2023-05-01T01:32:40.485Z,1.90
2023-05-01T01:33:56.579Z,1.67
2023-05-01T01:35:11.401Z,1.77
2023-05-01T01:36:22.376Z,2.00
2023-05-01T01:37:30.353Z,1.38
2023-05-01T01:38:41.949Z,1.50
2023-05-01T01:39:56.463Z,2.10
2023-05-01T01:41:15.905Z,2.05
2023-05-01T01:42:37.615Z,1.80
2023-05-01T01:43:44.142Z,2.60
2023-05-01T01:44:55.906Z,2.67
2023-05-01T01:46:01.735Z,1.67
2023-05-01T01:47:07.262Z,1.85
2023-05-01T01:48:18.746Z,2.05
2023-05-01T01:49:26.806Z,2.55
2023-05-01T01:50:30.693Z,1.70
2023-05-01T01:51:34.310Z,2.80
2023-05-01T01:52:38.743Z,2.35
2023-05-01T01:53:46.271Z,2.63
2023-05-01T01:54:54.391Z,2.25
2023-05-01T01:55:58.293Z,2.30
2023-05-01T01:57:03.263Z,2.13
2023-05-01T01:58:07.090Z,2.45
2023-05-01T01:59:11.352Z,2.47
2023-05-01T02:00:14.857Z,3.13
2023-05-01T02:01:22.768Z,2.47
2023-05-01T02:02:27.759Z,1.70
2023-05-01T02:03:32.298Z,2.53
2023-05-01T02:04:35.927Z,1.90
2023-05-01T02:05:41.786Z,2.03
2023-05-01T02:06:45.183Z,2.35
2023-05-01T02:07:50.335Z,1.92
2023-05-01T02:08:53.645Z,2.28
2023-05-01T02:09:57.375Z,1.70
2023-05-01T02:11:02.200Z,2.22
2023-05-01T02:12:06.721Z,1.98
2023-05-01T02:13:10.784Z,2.17
2023-05-01T02:14:14.406Z,1.70
2023-05-01T02:15:19.309Z,2.42
2023-05-01T02:16:23.980Z,1.70
2023-05-01T02:17:28.789Z,2.17
2023-05-01T02:18:32.437Z,1.92
2023-05-01T02:19:35.566Z,1.67
2023-05-01T02:20:39.204Z,2.03
2023-05-01T02:21:42.315Z,2.25
2023-05-01T02:22:46.857Z,2.10
2023-05-01T02:23:51.316Z,3.05
2023-05-01T02:24:55.315Z,2.08
2023-05-01T02:25:59.029Z,2.28
2023-05-01T02:27:20.077Z,2.25
2023-05-01T02:28:24.278Z,2.03
2023-05-01T02:29:28.204Z,2.30
2023-05-01T02:30:31.492Z,2.00
2023-05-01T02:31:36.087Z,2.42
2023-05-01T02:32:40.456Z,1.42
2023-05-01T02:33:44.053Z,2.05
2023-05-01T02:34:48.006Z,1.55
2023-05-01T02:35:51.558Z,1.77
2023-05-01T02:36:55.044Z,1.70
2023-05-01T02:37:58.744Z,3.08
2023-05-01T02:39:02.452Z,2.30
2023-05-01T02:40:07.551Z,2.47
2023-05-01T02:41:12.270Z,2.42
2023-05-01T02:42:16.750Z,1.77
2023-05-01T02:43:21.736Z,1.88
2023-05-01T02:44:25.051Z,1.98
2023-05-01T02:45:28.804Z,2.05
2023-05-01T02:46:33.041Z,2.17
2023-05-01T02:47:39.477Z,1.95
2023-05-01T02:48:42.870Z,2.65
2023-05-01T02:49:48.654Z,1.92
2023-05-01T02:50:52.799Z,2.60
2023-05-01T02:51:56.722Z,3.00
2023-05-01T02:53:01.544Z,2.65
2023-05-01T02:54:15.556Z,1.83
2023-05-01T02:55:20.069Z,2.00
2023-05-01T02:56:24.069Z,1.98
2023-05-01T02:57:27.744Z,1.63
2023-05-01T02:58:33.338Z,1.73
2023-05-01T02:59:37.837Z,1.42
2023-05-01T03:00:41.927Z,2.00
2023-05-01T03:01:45.296Z,1.33
2023-05-01T03:02:48.731Z,1.45
2023-05-01T03:03:52.844Z,1.75
2023-05-01T03:04:57.597Z,1.42
2023-05-01T03:06:01.683Z,1.52
2023-05-01T03:07:07.329Z,2.17
2023-05-01T03:08:11.677Z,1.55
2023-05-01T03:09:16.075Z,1.85
2023-05-01T03:10:19.675Z,1.50
2023-05-01T03:11:23.472Z,1.42
2023-05-01T03:12:26.962Z,1.55
2023-05-01T03:13:30.660Z,1.50
2023-05-01T03:14:34.270Z,1.80
2023-05-01T03:15:38.535Z,1.65
2023-05-01T03:16:42.217Z,2.47
2023-05-01T03:17:46.206Z,2.40
2023-05-01T03:18:50.508Z,1.73
2023-05-01T03:19:53.801Z,2.67
2023-05-01T03:20:59.967Z,2.72
2023-05-01T03:22:04.753Z,2.63
2023-05-01T03:23:08.344Z,2.35
2023-05-01T03:24:12.276Z,2.58
2023-05-01T03:25:16.688Z,2.47
2023-05-01T03:26:20.279Z,2.15
2023-05-01T03:27:23.844Z,2.20
2023-05-01T03:28:28.113Z,1.73
2023-05-01T03:29:32.320Z,2.17
2023-05-01T03:30:37.292Z,1.95
2023-05-01T03:31:41.223Z,2.03
2023-05-01T03:32:47.611Z,2.55
2023-05-01T03:33:59.560Z,2.22
2023-05-01T03:35:03.376Z,2.25
2023-05-01T03:36:07.142Z,2.75
2023-05-01T03:37:11.578Z,1.60
2023-05-01T03:38:15.541Z,1.73
2023-05-01T03:39:55.287Z,1.60
2023-05-01T03:41:16.844Z,1.50
2023-05-01T03:42:39.065Z,1.80
2023-05-01T03:43:50.977Z,2.60
2023-05-01T03:45:16.357Z,2.30
2023-05-01T03:46:20.274Z,2.15
2023-05-01T03:47:24.577Z,2.25
2023-05-01T03:48:28.236Z,2.42
2023-05-01T03:49:31.743Z,2.50
2023-05-01T03:50:35.154Z,2.90
2023-05-01T03:51:38.571Z,3.45
2023-05-01T03:52:42.595Z,2.88
2023-05-01T03:53:46.594Z,3.05
2023-05-01T03:54:50.532Z,2.58
2023-05-01T03:56:00.145Z,2.10
2023-05-01T03:57:03.592Z,2.53
2023-05-01T03:58:08.212Z,2.47
2023-05-01T03:59:12.004Z,2.20
2023-05-01T04:00:15.947Z,2.90
2023-05-01T04:01:19.073Z,2.97
2023-05-01T04:02:25.442Z,2.50
2023-05-01T04:03:29.630Z,2.45
2023-05-01T04:04:34.187Z,2.40
2023-05-01T04:05:38.216Z,2.40
2023-05-01T04:06:42.566Z,2.35
2023-05-01T04:07:45.985Z,2.13
2023-05-01T04:08:50.183Z,3.05
2023-05-01T04:09:53.705Z,2.35
2023-05-01T04:10:57.530Z,2.28
2023-05-01T04:12:03.270Z,2.42
2023-05-01T04:13:08.060Z,2.28
2023-05-01T04:14:11.999Z,2.67
2023-05-01T04:15:17.037Z,1.92
2023-05-01T04:16:20.579Z,2.55
2023-05-01T04:17:24.662Z,2.10
2023-05-01T04:18:28.424Z,2.47
2023-05-01T04:19:36.236Z,2.45
2023-05-01T04:20:40.921Z,3.20
2023-05-01T04:21:44.625Z,2.75
2023-05-01T04:22:48.738Z,2.90
2023-05-01T04:23:52.799Z,2.55
2023-05-01T04:24:57.010Z,3.15
2023-05-01T04:26:00.516Z,3.15
2023-05-01T04:27:03.702Z,2.75
2023-05-01T04:28:07.232Z,2.85
2023-05-01T04:29:11.029Z,3.58
2023-05-01T04:30:14.580Z,3.10
2023-05-01T04:31:18.541Z,3.05
2023-05-01T04:32:22.587Z,3.38
2023-05-01T04:33:26.669Z,3.08
2023-05-01T04:34:31.047Z,3.72
2023-05-01T04:35:34.196Z,4.03
2023-05-01T04:36:38.104Z,4.55
2023-05-01T04:37:42.217Z,3.60
2023-05-01T04:38:46.299Z,4.45
2023-05-01T04:39:51.888Z,3.80
2023-05-01T04:40:57.337Z,4.63
2023-05-01T04:42:01.138Z,4.20
2023-05-01T04:43:05.144Z,4.30
2023-05-01T04:44:09.305Z,4.10
2023-05-01T04:45:13.158Z,3.78
2023-05-01T04:46:17.347Z,3.20
2023-05-01T04:47:21.424Z,3.92
2023-05-01T04:48:25.353Z,3.40
2023-05-01T04:49:28.600Z,3.28
2023-05-01T04:50:32.831Z,3.42
2023-05-01T04:51:36.715Z,3.95
2023-05-01T04:52:40.218Z,3.40
2023-05-01T04:53:43.576Z,3.38
2023-05-01T04:54:58.886Z,3.17
2023-05-01T04:56:05.122Z,3.95
2023-05-01T04:57:10.061Z,3.25
2023-05-01T04:58:13.784Z,2.53
2023-05-01T04:59:18.074Z,2.53
2023-05-01T05:00:22.437Z,2.50
2023-05-01T05:01:31.564Z,2.20
2023-05-01T05:02:35.559Z,3.25
2023-05-01T05:03:39.014Z,2.72
2023-05-01T05:04:42.645Z,2.88
2023-05-01T05:05:47.454Z,3.42
2023-05-01T05:06:51.926Z,2.67
2023-05-01T05:08:03.712Z,3.03
2023-05-01T05:09:12.124Z,2.50
2023-05-01T05:10:15.991Z,3.03
2023-05-01T05:11:25.513Z,3.72
2023-05-01T05:12:49.722Z,3.53
2023-05-01T05:13:53.458Z,2.80
2023-05-01T05:14:57.304Z,3.60
2023-05-01T05:16:01.418Z,2.70
2023-05-01T05:17:05.321Z,2.53
2023-05-01T05:18:08.911Z,2.75
2023-05-01T05:19:12.303Z,2.05
2023-05-01T05:20:18.899Z,2.83
2023-05-01T05:21:22.423Z,3.35
2023-05-01T05:22:29.603Z,3.30
2023-05-01T05:23:54.054Z,2.38
2023-05-01T05:25:01.429Z,3.85
2023-05-01T05:26:06.155Z,2.88
2023-05-01T05:27:09.366Z,3.03
2023-05-01T05:28:13.188Z,2.97
2023-05-01T05:29:18.509Z,3.85
2023-05-01T05:30:21.779Z,3.92
2023-05-01T05:31:25.502Z,2.50
2023-05-01T05:32:30.428Z,3.35
2023-05-01T05:33:33.930Z,3.00
2023-05-01T05:34:37.600Z,2.50
2023-05-01T05:35:41.559Z,2.53
2023-05-01T05:36:44.837Z,3.72
2023-05-01T05:37:48.280Z,3.55
2023-05-01T05:38:52.797Z,4.00
2023-05-01T05:39:56.556Z,4.22
2023-05-01T05:41:01.892Z,4.13
2023-05-01T05:42:07.097Z,3.50
2023-05-01T05:43:11.690Z,3.92
2023-05-01T05:44:16.490Z,4.50
2023-05-01T05:45:21.936Z,4.50
2023-05-01T05:46:25.617Z,3.80
2023-05-01T05:47:29.199Z,3.92
2023-05-01T05:48:33.030Z,3.92
2023-05-01T05:49:37.173Z,4.32
2023-05-01T05:50:41.058Z,3.90
2023-05-01T05:51:45.657Z,3.95
2023-05-01T05:52:49.215Z,4.00
2023-05-01T05:53:53.219Z,4.35
2023-05-01T05:54:57.278Z,4.45
2023-05-01T05:56:01.148Z,3.88
2023-05-01T05:57:07.387Z,4.45
2023-05-01T05:58:20.859Z,3.72
2023-05-01T05:59:25.950Z,3.88
2023-05-01T06:00:29.751Z,3.67
2023-05-01T06:01:38.259Z,3.38
2023-05-01T06:02:42.178Z,4.00
2023-05-01T06:03:45.826Z,4.38
2023-05-01T06:04:49.869Z,4.30
2023-05-01T06:05:56.255Z,5.78
2023-05-01T06:07:01.257Z,4.20
2023-05-01T06:08:05.111Z,4.25
2023-05-01T06:09:13.684Z,4.93
2023-05-01T06:10:17.972Z,5.40
2023-05-01T06:11:22.404Z,4.97
2023-05-01T06:12:26.352Z,4.38
2023-05-01T06:13:30.318Z,5.18
2023-05-01T06:14:33.749Z,5.60
2023-05-01T06:15:40.456Z,4.55
2023-05-01T06:16:43.902Z,3.58
2023-05-01T06:17:47.149Z,4.28
2023-05-01T06:18:50.526Z,4.50
2023-05-01T06:19:54.122Z,3.58
2023-05-01T06:20:58.048Z,4.07
2023-05-01T06:22:02.195Z,3.80
2023-05-01T06:23:10.628Z,3.88
2023-05-01T06:24:24.097Z,3.00
2023-05-01T06:25:29.141Z,3.10
2023-05-01T06:26:32.574Z,2.97
2023-05-01T06:27:36.569Z,3.78
2023-05-01T06:28:40.363Z,2.92
2023-05-01T06:29:43.994Z,4.25
2023-05-01T06:30:47.227Z,3.83
2023-05-01T06:31:52.470Z,3.08
2023-05-01T06:32:56.388Z,3.25
2023-05-01T06:34:00.365Z,3.22
2023-05-01T06:35:24.034Z,3.08
2023-05-01T06:36:27.604Z,3.30
2023-05-01T06:37:31.748Z,2.80
2023-05-01T06:38:36.204Z,2.83
2023-05-01T06:39:40.058Z,3.22
2023-05-01T06:40:43.765Z,3.13
2023-05-01T06:41:48.619Z,3.20
2023-05-01T06:43:00.339Z,3.25
2023-05-01T06:44:05.667Z,2.67
2023-05-01T06:45:09.136Z,2.75
2023-05-01T06:46:13.050Z,3.08
2023-05-01T06:47:17.251Z,3.13
2023-05-01T06:48:20.436Z,3.22
2023-05-01T06:49:24.254Z,3.10
2023-05-01T06:50:27.792Z,2.75
2023-05-01T06:51:32.507Z,2.78
2023-05-01T06:52:35.872Z,2.63
2023-05-01T06:53:40.953Z,2.80
2023-05-01T06:54:44.732Z,2.90
2023-05-01T06:55:48.466Z,2.50
2023-05-01T06:56:52.210Z,2.58
2023-05-01T06:57:55.338Z,2.63
2023-05-01T06:58:58.914Z,3.33
2023-05-01T07:00:02.799Z,2.63
2023-05-01T07:01:06.826Z,3.38
2023-05-01T07:02:10.991Z,2.10
2023-05-01T07:03:15.153Z,2.35
2023-05-01T07:04:18.490Z,2.78
2023-05-01T07:05:23.386Z,3.00
2023-05-01T07:06:28.317Z,3.00
2023-05-01T07:07:32.537Z,3.17
2023-05-01T07:08:36.289Z,2.97
2023-05-01T07:09:39.977Z,2.92
2023-05-01T07:10:43.850Z,2.70
2023-05-01T07:11:47.320Z,2.17
2023-05-01T07:12:51.526Z,2.50
2023-05-01T07:13:55.851Z,2.50
2023-05-01T07:14:59.295Z,2.67
2023-05-01T07:16:03.292Z,2.10
2023-05-01T07:17:07.744Z,2.47
2023-05-01T07:18:12.976Z,3.08
2023-05-01T07:19:16.382Z,2.63
2023-05-01T07:20:19.508Z,3.10
2023-05-01T07:21:22.836Z,2.92
2023-05-01T07:22:26.142Z,2.25
2023-05-01T07:23:29.640Z,2.90
2023-05-01T07:24:33.189Z,2.88
2023-05-01T07:25:41.890Z,2.55
2023-05-01T07:26:45.022Z,2.70
2023-05-01T07:27:48.437Z,3.10
2023-05-01T07:28:52.384Z,2.70
2023-05-01T07:29:58.775Z,3.25
2023-05-01T07:31:02.623Z,3.00
2023-05-01T07:32:07.074Z,2.80
2023-05-01T07:33:10.624Z,3.92
2023-05-01T07:34:14.738Z,3.38
2023-05-01T07:35:18.668Z,3.30
2023-05-01T07:36:22.844Z,2.75
2023-05-01T07:37:28.032Z,3.65
2023-05-01T07:38:31.678Z,3.17
2023-05-01T07:39:35.508Z,2.85
2023-05-01T07:40:39.628Z,3.05
2023-05-01T07:41:43.594Z,2.70
2023-05-01T07:42:47.494Z,2.78
2023-05-01T07:43:51.530Z,3.83
2023-05-01T07:44:55.622Z,3.03
2023-05-01T07:46:02.232Z,2.83
2023-05-01T07:47:06.788Z,3.08
2023-05-01T07:48:10.416Z,3.10
2023-05-01T07:49:14.117Z,2.75
2023-05-01T07:50:17.781Z,2.92
2023-05-01T07:51:21.268Z,3.85
2023-05-01T07:52:24.833Z,2.92
2023-05-01T07:53:28.743Z,3.30
2023-05-01T07:54:32.233Z,3.17
2023-05-01T07:55:35.549Z,3.67
2023-05-01T07:56:38.910Z,2.97
2023-05-01T07:57:42.935Z,2.95
2023-05-01T07:58:46.783Z,2.53
2023-05-01T07:59:54.733Z,3.08
2023-05-01T08:00:58.053Z,2.88
2023-05-01T08:02:01.687Z,2.88
2023-05-01T08:03:05.939Z,2.95
2023-05-01T08:04:09.737Z,3.60
2023-05-01T08:05:13.407Z,3.65
2023-05-01T08:06:17.205Z,2.90
2023-05-01T08:07:21.222Z,2.92
2023-05-01T08:08:24.894Z,3.20
2023-05-01T08:09:28.438Z,3.50
2023-05-01T08:10:31.830Z,3.53
2023-05-01T08:11:35.716Z,3.40
2023-05-01T08:12:40.188Z,2.85
2023-05-01T08:13:44.111Z,2.80
2023-05-01T08:14:47.963Z,3.78
2023-05-01T08:15:51.657Z,2.80
2023-05-01T08:16:56.265Z,3.92
2023-05-01T08:17:59.853Z,2.95
2023-05-01T08:19:03.817Z,3.30
2023-05-01T08:20:07.734Z,3.67
2023-05-01T08:21:11.922Z,3.20
2023-05-01T08:22:15.747Z,2.80
2023-05-01T08:23:19.594Z,2.92
2023-05-01T08:24:23.288Z,3.65
2023-05-01T08:25:26.405Z,3.08
2023-05-01T08:26:30.055Z,3.78
2023-05-01T08:27:34.749Z,2.65
2023-05-01T08:28:38.575Z,2.65
2023-05-01T08:29:42.818Z,3.65
2023-05-01T08:30:46.791Z,3.83
2023-05-01T08:31:49.922Z,3.95
2023-05-01T08:32:53.605Z,3.15
2023-05-01T08:33:57.020Z,3.45
2023-05-01T08:34:59.959Z,3.38
2023-05-01T08:36:03.568Z,3.58
2023-05-01T08:37:07.277Z,2.90
2023-05-01T08:38:12.192Z,3.55
2023-05-01T08:39:16.587Z,3.28
2023-05-01T08:40:20.307Z,3.15
2023-05-01T08:41:24.636Z,3.08
2023-05-01T08:42:29.823Z,3.60
2023-05-01T08:43:34.581Z,2.88
2023-05-01T08:44:40.426Z,3.22
2023-05-01T08:45:44.381Z,3.83
2023-05-01T08:46:53.998Z,3.72
2023-05-01T08:47:57.482Z,3.78
2023-05-01T08:49:01.021Z,3.60
2023-05-01T08:50:04.752Z,3.50
2023-05-01T08:51:08.639Z,3.58
2023-05-01T08:52:12.708Z,3.50
2023-05-01T08:53:19.179Z,3.95
2023-05-01T08:54:23.362Z,4.05
2023-05-01T08:55:26.776Z,3.50
2023-05-01T08:56:32.325Z,3.13
2023-05-01T08:57:36.343Z,2.67
2023-05-01T08:58:39.798Z,2.80
2023-05-01T08:59:43.861Z,3.45
2023-05-01T09:00:48.202Z,3.53
2023-05-01T09:01:51.688Z,3.53
2023-05-01T09:02:55.204Z,3.70
2023-05-01T09:03:59.582Z,2.85
2023-05-01T09:05:04.892Z,3.05
2023-05-01T09:06:08.508Z,2.58
2023-05-01T09:07:12.999Z,2.88
2023-05-01T09:08:17.094Z,3.25
2023-05-01T09:09:20.845Z,3.38
2023-05-01T09:10:24.558Z,3.15
2023-05-01T09:11:28.500Z,2.63
2023-05-01T09:12:36.033Z,2.97
2023-05-01T09:13:39.745Z,2.85
2023-05-01T09:14:43.584Z,2.78
2023-05-01T09:15:47.283Z,3.10
2023-05-01T09:16:50.816Z,2.92
2023-05-01T09:17:55.312Z,3.05
2023-05-01T09:19:00.003Z,2.70
2023-05-01T09:20:07.172Z,3.17
2023-05-01T09:21:11.062Z,2.83
2023-05-01T09:22:14.203Z,3.40
2023-05-01T09:23:17.585Z,3.20
2023-05-01T09:24:21.883Z,3.35
2023-05-01T09:25:25.296Z,3.33
2023-05-01T09:26:28.978Z,2.80
2023-05-01T09:27:38.067Z,3.30
2023-05-01T09:28:47.861Z,2.97
2023-05-01T09:29:51.709Z,2.75
2023-05-01T09:30:54.971Z,2.97
2023-05-01T09:31:59.335Z,3.50
2023-05-01T09:33:20.660Z,2.95
2023-05-01T09:34:24.382Z,2.92
2023-05-01T09:35:28.576Z,2.58
2023-05-01T09:36:33.349Z,3.47
2023-05-01T09:37:37.567Z,2.50
2023-05-01T09:38:40.959Z,3.03
2023-05-01T09:39:44.437Z,3.10
2023-05-01T09:40:48.083Z,2.78
2023-05-01T09:41:53.671Z,3.03
2023-05-01T09:42:57.375Z,3.30
2023-05-01T09:44:00.971Z,3.22
2023-05-01T09:45:05.995Z,3.17
2023-05-01T09:46:11.617Z,3.15
2023-05-01T09:47:23.527Z,3.47
2023-05-01T09:48:27.344Z,3.30
2023-05-01T09:49:47.441Z,3.30
2023-05-01T09:51:53.801Z,2.83
2023-05-01T09:52:57.348Z,3.97
2023-05-01T09:54:02.433Z,7.43
2023-05-01T09:55:18.727Z,9.75
2023-05-01T09:56:22.863Z,10.43
2023-05-01T09:57:41.360Z,8.05
2023-05-01T09:58:45.199Z,3.50
2023-05-01T10:00:03.715Z,3.08
2023-05-01T10:01:07.596Z,2.95
2023-05-01T10:02:28.915Z,2.85
2023-05-01T10:03:33.276Z,3.10
2023-05-01T10:04:36.829Z,3.35
2023-05-01T10:05:46.062Z,2.90
2023-05-01T10:06:49.539Z,3.17
2023-05-01T10:08:00.243Z,2.70
2023-05-01T10:09:04.642Z,2.70
2023-05-01T10:10:20.926Z,2.38
2023-05-01T10:11:25.258Z,2.72
2023-05-01T10:12:29.296Z,2.50
2023-05-01T10:13:33.292Z,2.40
2023-05-01T10:14:55.173Z,1.98
2023-05-01T10:15:59.195Z,2.33
2023-05-01T10:17:03.161Z,2.60
2023-05-01T10:18:06.885Z,2.45
2023-05-01T10:19:10.661Z,2.30
2023-05-01T10:20:14.332Z,2.17
2023-05-01T10:21:18.331Z,2.42
2023-05-01T10:22:22.905Z,2.70
2023-05-01T10:23:26.736Z,2.42
2023-05-01T10:24:30.453Z,2.75
2023-05-01T10:25:34.460Z,2.97
2023-05-01T10:26:38.605Z,2.30
2023-05-01T10:27:42.697Z,2.55
2023-05-01T10:28:49.081Z,2.35
2023-05-01T10:29:54.366Z,2.70
2023-05-01T10:30:58.813Z,2.70
2023-05-01T10:32:03.238Z,2.60
2023-05-01T10:33:07.174Z,2.72
2023-05-01T10:34:12.193Z,2.45
2023-05-01T10:35:20.150Z,2.50
2023-05-01T10:36:54.163Z,2.42
2023-05-01T10:38:03.100Z,2.55
2023-05-01T10:39:06.630Z,2.70
2023-05-01T10:40:41.180Z,2.35
2023-05-01T10:42:00.236Z,8.18
2023-05-01T10:43:18.983Z,5.57
2023-05-01T10:44:24.419Z,2.90
2023-05-01T10:45:31.613Z,2.67
2023-05-01T10:46:35.470Z,2.78
2023-05-01T10:47:42.867Z,2.90
2023-05-01T10:48:46.976Z,2.40
2023-05-01T10:50:06.081Z,2.70
2023-05-01T10:51:21.207Z,2.90
2023-05-01T10:52:25.054Z,2.03
2023-05-01T10:53:28.379Z,2.80
2023-05-01T10:54:33.599Z,2.55
2023-05-01T10:55:38.316Z,2.55
2023-05-01T10:56:43.604Z,2.40
2023-05-01T10:57:46.864Z,2.55
2023-05-01T10:59:05.754Z,2.97
2023-05-01T11:00:10.090Z,3.30
2023-05-01T11:01:35.460Z,2.10
2023-05-01T11:02:39.004Z,2.25
2023-05-01T11:03:42.614Z,2.33
2023-05-01T11:04:51.962Z,2.30
2023-05-01T11:06:01.325Z,2.17
2023-05-01T11:07:12.021Z,2.17
2023-05-01T11:08:33.930Z,2.67
2023-05-01T11:09:56.032Z,3.05
2023-05-01T11:11:06.728Z,2.67
2023-05-01T11:12:11.749Z,2.58
2023-05-01T11:13:15.941Z,2.47
2023-05-01T11:14:20.351Z,2.70
2023-05-01T11:15:34.913Z,3.10
2023-05-01T11:16:43.796Z,2.65
2023-05-01T11:17:47.814Z,3.10
2023-05-01T11:18:51.769Z,2.88
2023-05-01T11:19:55.626Z,4.03
2023-05-01T11:20:59.737Z,2.80
2023-05-01T11:22:03.219Z,2.53
2023-05-01T11:23:06.992Z,3.33
2023-05-01T11:24:10.607Z,3.03
2023-05-01T11:25:24.160Z,2.75
2023-05-01T11:26:27.725Z,2.70
2023-05-01T11:27:34.971Z,2.90
2023-05-01T11:28:39.483Z,2.10
2023-05-01T11:29:45.006Z,2.63
2023-05-01T11:30:48.713Z,2.95
2023-05-01T11:31:52.567Z,2.75
2023-05-01T11:32:55.839Z,3.15
2023-05-01T11:34:00.549Z,2.55
2023-05-01T11:35:04.298Z,2.75
2023-05-01T11:36:08.333Z,2.88
2023-05-01T11:37:12.084Z,2.75
2023-05-01T11:38:22.675Z,2.53
2023-05-01T11:39:26.277Z,2.65
2023-05-01T11:40:35.280Z,2.70
2023-05-01T11:41:39.006Z,2.90
2023-05-01T11:42:42.131Z,2.72
2023-05-01T11:43:58.873Z,3.00
2023-05-01T11:45:14.467Z,2.80
2023-05-01T11:46:28.474Z,2.85
2023-05-01T11:47:35.102Z,2.88
2023-05-01T11:48:38.964Z,3.00
2023-05-01T11:49:42.972Z,3.13
2023-05-01T11:50:47.014Z,3.10
2023-05-01T11:51:58.694Z,3.10
2023-05-01T11:53:02.496Z,2.97
2023-05-01T11:54:06.608Z,3.13
2023-05-01T11:55:11.394Z,2.55
2023-05-01T11:56:26.413Z,3.17
2023-05-01T11:57:31.834Z,2.53
2023-05-01T11:58:35.311Z,3.47
2023-05-01T11:59:39.245Z,2.90
2023-05-01T12:00:43.718Z,2.47
2023-05-01T12:01:47.734Z,2.70
2023-05-01T12:03:10.857Z,2.78
2023-05-01T12:04:15.912Z,2.50
2023-05-01T12:05:19.797Z,2.83
2023-05-01T12:06:23.492Z,2.55
2023-05-01T12:07:27.117Z,2.25
2023-05-01T12:08:30.678Z,2.88
2023-05-01T12:09:34.422Z,2.58
2023-05-01T12:10:38.570Z,2.47
2023-05-01T12:11:42.471Z,2.90
2023-05-01T12:12:45.841Z,3.20
2023-05-01T12:13:50.798Z,2.80
2023-05-01T12:14:54.494Z,2.53
2023-05-01T12:15:57.727Z,2.33
2023-05-01T12:17:01.464Z,2.45
2023-05-01T12:18:06.643Z,2.55
2023-05-01T12:19:12.847Z,1.92
2023-05-01T12:20:16.836Z,2.42
2023-05-01T12:21:20.359Z,2.75
2023-05-01T12:22:24.163Z,2.67
2023-05-01T12:23:36.077Z,2.80
2023-05-01T12:24:40.434Z,2.70
2023-05-01T12:25:44.816Z,2.58
2023-05-01T12:26:48.381Z,3.15
2023-05-01T12:27:52.267Z,2.45
2023-05-01T12:29:01.027Z,2.50
2023-05-01T12:30:04.603Z,2.78
2023-05-01T12:31:08.725Z,3.13
2023-05-01T12:32:12.486Z,2.95
2023-05-01T12:33:20.689Z,2.83
2023-05-01T12:34:30.480Z,2.10
2023-05-01T12:35:33.908Z,2.53
2023-05-01T12:36:37.787Z,2.83
2023-05-01T12:37:41.606Z,2.65
2023-05-01T12:39:01.857Z,2.70
2023-05-01T12:40:06.222Z,2.58
2023-05-01T12:41:13.227Z,2.33
2023-05-01T12:42:17.413Z,2.08
2023-05-01T12:43:33.455Z,2.45
2023-05-01T12:44:37.712Z,3.03
2023-05-01T12:45:41.848Z,2.38
2023-05-01T12:46:45.265Z,2.42
2023-05-01T12:47:48.954Z,2.72
2023-05-01T12:48:53.735Z,3.17
2023-05-01T12:50:08.495Z,2.60
2023-05-01T12:51:18.714Z,2.63
2023-05-01T12:53:30.465Z,2.40
2023-05-01T12:54:35.882Z,2.70
2023-05-01T12:55:49.316Z,2.85
2023-05-01T12:56:55.646Z,2.70
2023-05-01T12:57:58.935Z,2.30
2023-05-01T12:59:02.541Z,2.35
2023-05-01T13:00:06.229Z,2.85
2023-05-01T13:01:10.038Z,2.30
2023-05-01T13:02:16.631Z,2.55
2023-05-01T13:03:27.919Z,2.67
2023-05-01T13:04:31.930Z,2.20
2023-05-01T13:05:35.932Z,2.30
2023-05-01T13:06:40.052Z,2.45
2023-05-01T13:07:49.261Z,2.20
2023-05-01T13:08:53.094Z,3.38
2023-05-01T13:09:59.923Z,2.97
2023-05-01T13:11:11.211Z,2.92
2023-05-01T13:12:14.816Z,1.92
2023-05-01T13:13:27.795Z,2.65
2023-05-01T13:14:31.501Z,2.63
2023-05-01T13:15:34.849Z,2.70
2023-05-01T13:16:47.784Z,2.15
2023-05-01T13:17:51.881Z,2.47
2023-05-01T13:18:56.056Z,2.75
2023-05-01T13:20:03.524Z,2.55
2023-05-01T13:21:11.339Z,2.80
2023-05-01T13:22:14.675Z,2.42
2023-05-01T13:23:18.154Z,2.67
2023-05-01T13:24:22.165Z,2.40
2023-05-01T13:25:25.584Z,2.30
2023-05-01T13:26:32.392Z,2.67
2023-05-01T13:27:35.750Z,2.30
2023-05-01T13:28:46.117Z,2.20
2023-05-01T13:30:01.513Z,2.92
2023-05-01T13:31:15.776Z,2.38
2023-05-01T13:32:19.547Z,2.25
2023-05-01T13:33:23.194Z,2.63
2023-05-01T13:34:31.488Z,2.72
2023-05-01T13:35:35.705Z,2.90
2023-05-01T13:36:40.002Z,2.50
2023-05-01T13:37:43.486Z,2.80
2023-05-01T13:38:54.829Z,2.90
2023-05-01T13:40:01.664Z,2.30
2023-05-01T13:41:05.373Z,2.60
2023-05-01T13:42:09.669Z,2.67
2023-05-01T13:43:16.365Z,2.95
2023-05-01T13:44:19.934Z,2.40
2023-05-01T13:45:23.382Z,2.47
2023-05-01T13:46:30.236Z,2.50
2023-05-01T13:47:33.936Z,2.50
2023-05-01T13:48:37.091Z,2.30
2023-05-01T13:49:42.440Z,2.78
2023-05-01T13:50:46.057Z,2.67
2023-05-01T13:51:49.934Z,2.20
2023-05-01T13:52:53.406Z,2.08
2023-05-01T13:53:57.107Z,2.65
2023-05-01T13:55:02.034Z,2.30
2023-05-01T13:56:08.448Z,2.03
2023-05-01T13:57:12.208Z,2.20
2023-05-01T13:58:16.171Z,2.00
2023-05-01T13:59:19.722Z,1.83
2023-05-01T14:00:23.418Z,1.90
2023-05-01T14:01:27.204Z,2.00
2023-05-01T14:02:31.106Z,2.03
2023-05-01T14:03:41.522Z,2.22
2023-05-01T14:04:45.344Z,1.95
2023-05-01T14:05:49.449Z,1.92
2023-05-01T14:06:53.225Z,1.90
2023-05-01T14:07:58.192Z,1.92
2023-05-01T14:09:01.655Z,1.88
2023-05-01T14:10:06.631Z,2.10
2023-05-01T14:11:10.783Z,2.22
2023-05-01T14:12:15.743Z,2.08
2023-05-01T14:13:20.014Z,2.03
2023-05-01T14:14:23.298Z,2.40
2023-05-01T14:15:27.181Z,2.30
2023-05-01T14:16:32.126Z,1.80
2023-05-01T14:17:37.140Z,2.17
2023-05-01T14:18:48.406Z,2.30
2023-05-01T14:19:55.751Z,2.00
2023-05-01T14:21:00.327Z,1.77
2023-05-01T14:22:03.641Z,2.22
2023-05-01T14:23:07.032Z,1.95
2023-05-01T14:24:10.293Z,1.60
2023-05-01T14:25:36.371Z,1.67
2023-05-01T14:26:44.035Z,2.00
2023-05-01T14:27:48.141Z,1.98
2023-05-01T14:28:51.736Z,1.98
2023-05-01T14:29:56.112Z,2.17
2023-05-01T14:31:00.104Z,1.90
2023-05-01T14:32:05.171Z,1.70
2023-05-01T14:33:10.664Z,1.95
2023-05-01T14:34:14.152Z,1.92
2023-05-01T14:35:17.964Z,2.15
2023-05-01T14:36:21.327Z,2.20
2023-05-01T14:37:25.190Z,1.85
2023-05-01T14:38:28.813Z,2.05
2023-05-01T14:39:33.128Z,1.80